sensor_id;sensor_type;location;lat;lon;timestamp;P1;durP1;ratioP1;P2;durP2;ratioP2
44137;SDS011;29800;55.942;37.314;2023-09-19T00:00:21;19.02;;;11.55;;
44137;SDS011;29800;55.942;37.314;2023-09-19T00:02:56;17.10;;;10.90;;
44137;SDS011;29800;55.942;37.314;2023-09-19T00:05:28;17.65;;;11.27;;
44137;SDS011;29800;55.942;37.314;2023-09-19T00:07:56;20.00;;;11.23;;
44137;SDS011;29800;55.942;37.314;2023-09-19T00:10:26;17.38;;;10.50;;
44137;SDS011;29800;55.942;37.314;2023-09-19T00:12:57;13.88;;;9.48;;
44137;SDS011;29800;55.942;37.314;2023-09-19T00:15:35;16.67;;;10.55;;
44137;SDS011;29800;55.942;37.314;2023-09-19T00:18:04;17.08;;;9.60;;
44137;SDS011;29800;55.942;37.314;2023-09-19T00:20:32;16.98;;;9.45;;
44137;SDS011;29800;55.942;37.314;2023-09-19T00:23:02;14.30;;;9.35;;
44137;SDS011;29800;55.942;37.314;2023-09-19T00:25:30;13.68;;;9.27;;
44137;SDS011;29800;55.942;37.314;2023-09-19T00:27:58;16.15;;;9.27;;
44137;SDS011;29800;55.942;37.314;2023-09-19T00:30:26;15.50;;;9.25;;
44137;SDS011;29800;55.942;37.314;2023-09-19T00:32:53;13.35;;;8.82;;
44137;SDS011;29800;55.942;37.314;2023-09-19T00:35:20;15.23;;;8.73;;
44137;SDS011;29800;55.942;37.314;2023-09-19T00:37:51;13.35;;;7.78;;
44137;SDS011;29800;55.942;37.314;2023-09-19T00:40:18;13.45;;;8.13;;
44137;SDS011;29800;55.942;37.314;2023-09-19T00:42:45;10.18;;;7.55;;
44137;SDS011;29800;55.942;37.314;2023-09-19T00:45:13;10.68;;;7.53;;
44137;SDS011;29800;55.942;37.314;2023-09-19T00:47:45;10.77;;;7.30;;
44137;SDS011;29800;55.942;37.314;2023-09-19T00:50:18;11.57;;;7.78;;
44137;SDS011;29800;55.942;37.314;2023-09-19T00:52:48;10.43;;;7.55;;
44137;SDS011;29800;55.942;37.314;2023-09-19T00:55:16;11.52;;;7.82;;
44137;SDS011;29800;55.942;37.314;2023-09-19T00:57:46;11.50;;;7.00;;
44137;SDS011;29800;55.942;37.314;2023-09-19T01:00:16;11.60;;;7.15;;
44137;SDS011;29800;55.942;37.314;2023-09-19T01:02:46;10.13;;;7.25;;
44137;SDS011;29800;55.942;37.314;2023-09-19T01:05:13;10.07;;;7.20;;
44137;SDS011;29800;55.942;37.314;2023-09-19T01:07:41;11.65;;;7.45;;
44137;SDS011;29800;55.942;37.314;2023-09-19T01:10:08;10.13;;;6.90;;
44137;SDS011;29800;55.942;37.314;2023-09-19T01:15:09;12.32;;;7.32;;
44137;SDS011;29800;55.942;37.314;2023-09-19T01:17:45;12.88;;;7.40;;
44137;SDS011;29800;55.942;37.314;2023-09-19T01:20:18;10.57;;;7.13;;
44137;SDS011;29800;55.942;37.314;2023-09-19T01:23:00;13.68;;;6.88;;
44137;SDS011;29800;55.942;37.314;2023-09-19T01:25:33;11.98;;;7.05;;
44137;SDS011;29800;55.942;37.314;2023-09-19T01:31:19;9.23;;;6.40;;
44137;SDS011;29800;55.942;37.314;2023-09-19T01:33:56;12.07;;;7.10;;
44137;SDS011;29800;55.942;37.314;2023-09-19T01:36:28;11.90;;;7.00;;
44137;SDS011;29800;55.942;37.314;2023-09-19T01:38:57;9.07;;;7.03;;
44137;SDS011;29800;55.942;37.314;2023-09-19T01:41:29;12.63;;;7.15;;
44137;SDS011;29800;55.942;37.314;2023-09-19T01:44:04;10.40;;;7.57;;
44137;SDS011;29800;55.942;37.314;2023-09-19T01:46:38;11.52;;;7.35;;
44137;SDS011;29800;55.942;37.314;2023-09-19T01:49:13;9.65;;;6.97;;
44137;SDS011;29800;55.942;37.314;2023-09-19T01:51:53;10.15;;;6.85;;
44137;SDS011;29800;55.942;37.314;2023-09-19T01:54:30;9.77;;;6.80;;
44137;SDS011;29800;55.942;37.314;2023-09-19T01:57:03;13.88;;;7.05;;
44137;SDS011;29800;55.942;37.314;2023-09-19T01:59:36;10.80;;;7.65;;
44137;SDS011;29800;55.942;37.314;2023-09-19T02:02:09;10.18;;;6.88;;
44137;SDS011;29800;55.942;37.314;2023-09-19T02:04:36;10.50;;;6.97;;
44137;SDS011;29800;55.942;37.314;2023-09-19T02:07:02;9.73;;;7.15;;
44137;SDS011;29800;55.942;37.314;2023-09-19T02:09:31;10.32;;;6.82;;
44137;SDS011;29800;55.942;37.314;2023-09-19T02:12:01;12.98;;;6.97;;
44137;SDS011;29800;55.942;37.314;2023-09-19T02:14:29;8.98;;;6.32;;
44137;SDS011;29800;55.942;37.314;2023-09-19T02:16:56;11.40;;;6.97;;
44137;SDS011;29800;55.942;37.314;2023-09-19T02:19:23;10.63;;;6.88;;
44137;SDS011;29800;55.942;37.314;2023-09-19T02:21:49;9.40;;;6.75;;
44137;SDS011;29800;55.942;37.314;2023-09-19T02:24:16;11.25;;;7.07;;
44137;SDS011;29800;55.942;37.314;2023-09-19T02:26:42;12.40;;;7.00;;
44137;SDS011;29800;55.942;37.314;2023-09-19T02:29:09;11.18;;;6.78;;
44137;SDS011;29800;55.942;37.314;2023-09-19T02:31:38;14.05;;;6.95;;
44137;SDS011;29800;55.942;37.314;2023-09-19T02:34:05;9.10;;;6.38;;
44137;SDS011;29800;55.942;37.314;2023-09-19T02:36:35;11.77;;;6.57;;
44137;SDS011;29800;55.942;37.314;2023-09-19T02:39:01;14.18;;;6.82;;
44137;SDS011;29800;55.942;37.314;2023-09-19T02:41:28;8.80;;;6.13;;
44137;SDS011;29800;55.942;37.314;2023-09-19T02:43:55;11.20;;;6.53;;
44137;SDS011;29800;55.942;37.314;2023-09-19T02:46:21;10.63;;;6.88;;
44137;SDS011;29800;55.942;37.314;2023-09-19T02:48:48;11.07;;;6.78;;
44137;SDS011;29800;55.942;37.314;2023-09-19T02:51:14;11.73;;;6.72;;
44137;SDS011;29800;55.942;37.314;2023-09-19T02:53:40;13.57;;;6.93;;
44137;SDS011;29800;55.942;37.314;2023-09-19T02:56:08;11.02;;;6.68;;
44137;SDS011;29800;55.942;37.314;2023-09-19T02:58:37;10.70;;;7.03;;
44137;SDS011;29800;55.942;37.314;2023-09-19T03:01:10;11.88;;;7.80;;
44137;SDS011;29800;55.942;37.314;2023-09-19T03:03:40;8.98;;;6.53;;
44137;SDS011;29800;55.942;37.314;2023-09-19T03:06:07;12.55;;;7.03;;
44137;SDS011;29800;55.942;37.314;2023-09-19T03:08:35;13.27;;;7.22;;
44137;SDS011;29800;55.942;37.314;2023-09-19T03:11:05;12.00;;;6.80;;
44137;SDS011;29800;55.942;37.314;2023-09-19T03:13:33;8.48;;;6.40;;
44137;SDS011;29800;55.942;37.314;2023-09-19T03:16:02;11.05;;;7.00;;
44137;SDS011;29800;55.942;37.314;2023-09-19T03:18:33;9.07;;;6.60;;
44137;SDS011;29800;55.942;37.314;2023-09-19T03:21:01;14.00;;;7.05;;
44137;SDS011;29800;55.942;37.314;2023-09-19T03:23:29;13.23;;;7.65;;
44137;SDS011;29800;55.942;37.314;2023-09-19T03:25:56;9.60;;;7.30;;
44137;SDS011;29800;55.942;37.314;2023-09-19T03:28:24;12.38;;;6.60;;
44137;SDS011;29800;55.942;37.314;2023-09-19T03:31:04;9.32;;;6.85;;
44137;SDS011;29800;55.942;37.314;2023-09-19T03:33:34;10.18;;;7.55;;
44137;SDS011;29800;55.942;37.314;2023-09-19T03:36:02;13.07;;;7.80;;
44137;SDS011;29800;55.942;37.314;2023-09-19T03:38:33;9.55;;;7.03;;
44137;SDS011;29800;55.942;37.314;2023-09-19T03:41:00;9.32;;;6.93;;
44137;SDS011;29800;55.942;37.314;2023-09-19T03:43:27;9.70;;;7.10;;
44137;SDS011;29800;55.942;37.314;2023-09-19T03:45:54;12.85;;;7.35;;
44137;SDS011;29800;55.942;37.314;2023-09-19T03:48:22;11.45;;;6.75;;
44137;SDS011;29800;55.942;37.314;2023-09-19T03:50:50;11.32;;;7.43;;
44137;SDS011;29800;55.942;37.314;2023-09-19T03:53:18;9.68;;;7.18;;
44137;SDS011;29800;55.942;37.314;2023-09-19T03:55:45;9.70;;;7.38;;
44137;SDS011;29800;55.942;37.314;2023-09-19T03:58:12;12.30;;;7.50;;
44137;SDS011;29800;55.942;37.314;2023-09-19T04:00:39;11.63;;;7.72;;
44137;SDS011;29800;55.942;37.314;2023-09-19T04:03:05;10.25;;;6.65;;
44137;SDS011;29800;55.942;37.314;2023-09-19T04:05:33;10.52;;;7.70;;
44137;SDS011;29800;55.942;37.314;2023-09-19T04:07:59;10.45;;;7.68;;
44137;SDS011;29800;55.942;37.314;2023-09-19T04:10:26;10.52;;;7.32;;
44137;SDS011;29800;55.942;37.314;2023-09-19T04:12:54;11.70;;;7.70;;
44137;SDS011;29800;55.942;37.314;2023-09-19T04:15:22;11.43;;;7.85;;
44137;SDS011;29800;55.942;37.314;2023-09-19T04:17:52;11.98;;;7.60;;
44137;SDS011;29800;55.942;37.314;2023-09-19T04:20:19;12.70;;;8.00;;
44137;SDS011;29800;55.942;37.314;2023-09-19T04:22:46;11.05;;;8.32;;
44137;SDS011;29800;55.942;37.314;2023-09-19T04:25:13;10.85;;;8.40;;
44137;SDS011;29800;55.942;37.314;2023-09-19T04:27:39;11.25;;;8.13;;
44137;SDS011;29800;55.942;37.314;2023-09-19T04:30:07;15.70;;;9.00;;
44137;SDS011;29800;55.942;37.314;2023-09-19T04:32:38;12.20;;;9.25;;
44137;SDS011;29800;55.942;37.314;2023-09-19T04:35:08;10.55;;;8.50;;
44137;SDS011;29800;55.942;37.314;2023-09-19T04:37:39;15.20;;;9.20;;
44137;SDS011;29800;55.942;37.314;2023-09-19T04:40:06;14.70;;;8.52;;
44137;SDS011;29800;55.942;37.314;2023-09-19T04:42:45;10.98;;;8.18;;
44137;SDS011;29800;55.942;37.314;2023-09-19T04:45:11;12.27;;;9.05;;
44137;SDS011;29800;55.942;37.314;2023-09-19T04:47:38;14.75;;;9.05;;
44137;SDS011;29800;55.942;37.314;2023-09-19T04:50:08;12.75;;;8.98;;
44137;SDS011;29800;55.942;37.314;2023-09-19T04:52:40;12.65;;;9.38;;
44137;SDS011;29800;55.942;37.314;2023-09-19T04:55:14;12.00;;;9.05;;
44137;SDS011;29800;55.942;37.314;2023-09-19T05:00:13;12.90;;;9.07;;
44137;SDS011;29800;55.942;37.314;2023-09-19T05:02:43;15.00;;;8.52;;
44137;SDS011;29800;55.942;37.314;2023-09-19T05:05:09;14.77;;;9.52;;
44137;SDS011;29800;55.942;37.314;2023-09-19T05:07:42;14.48;;;9.15;;
44137;SDS011;29800;55.942;37.314;2023-09-19T05:10:09;12.15;;;8.38;;
44137;SDS011;29800;55.942;37.314;2023-09-19T05:12:37;15.10;;;8.98;;
44137;SDS011;29800;55.942;37.314;2023-09-19T05:15:04;15.60;;;9.02;;
44137;SDS011;29800;55.942;37.314;2023-09-19T05:17:33;13.63;;;9.43;;
44137;SDS011;29800;55.942;37.314;2023-09-19T05:20:03;17.90;;;9.52;;
44137;SDS011;29800;55.942;37.314;2023-09-19T05:22:41;13.38;;;9.63;;
44137;SDS011;29800;55.942;37.314;2023-09-19T05:25:12;14.00;;;9.63;;
44137;SDS011;29800;55.942;37.314;2023-09-19T05:27:44;15.50;;;9.75;;
44137;SDS011;29800;55.942;37.314;2023-09-19T05:30:11;18.23;;;9.80;;
44137;SDS011;29800;55.942;37.314;2023-09-19T05:32:40;13.23;;;9.27;;
44137;SDS011;29800;55.942;37.314;2023-09-19T05:35:06;15.65;;;10.70;;
44137;SDS011;29800;55.942;37.314;2023-09-19T05:37:35;18.55;;;11.15;;
44137;SDS011;29800;55.942;37.314;2023-09-19T05:40:02;19.65;;;10.65;;
44137;SDS011;29800;55.942;37.314;2023-09-19T05:42:33;14.88;;;10.23;;
44137;SDS011;29800;55.942;37.314;2023-09-19T05:44:59;16.77;;;10.73;;
44137;SDS011;29800;55.942;37.314;2023-09-19T05:47:26;17.50;;;11.73;;
44137;SDS011;29800;55.942;37.314;2023-09-19T05:49:52;14.02;;;10.70;;
44137;SDS011;29800;55.942;37.314;2023-09-19T05:52:19;17.30;;;11.02;;
44137;SDS011;29800;55.942;37.314;2023-09-19T05:54:45;17.45;;;11.00;;
44137;SDS011;29800;55.942;37.314;2023-09-19T05:57:12;17.80;;;11.48;;
44137;SDS011;29800;55.942;37.314;2023-09-19T05:59:38;19.38;;;12.75;;
44137;SDS011;29800;55.942;37.314;2023-09-19T06:02:05;25.88;;;11.85;;
44137;SDS011;29800;55.942;37.314;2023-09-19T06:04:32;18.23;;;12.48;;
44137;SDS011;29800;55.942;37.314;2023-09-19T06:06:58;20.25;;;12.05;;
44137;SDS011;29800;55.942;37.314;2023-09-19T06:09:26;16.40;;;12.13;;
44137;SDS011;29800;55.942;37.314;2023-09-19T06:11:53;18.92;;;12.43;;
44137;SDS011;29800;55.942;37.314;2023-09-19T06:14:21;19.25;;;12.82;;
44137;SDS011;29800;55.942;37.314;2023-09-19T06:16:49;18.40;;;13.07;;
44137;SDS011;29800;55.942;37.314;2023-09-19T06:19:16;22.48;;;13.38;;
44137;SDS011;29800;55.942;37.314;2023-09-19T06:21:42;16.52;;;12.55;;
44137;SDS011;29800;55.942;37.314;2023-09-19T06:24:11;16.85;;;11.65;;
44137;SDS011;29800;55.942;37.314;2023-09-19T06:26:37;15.18;;;11.82;;
44137;SDS011;29800;55.942;37.314;2023-09-19T06:29:03;19.80;;;12.30;;
44137;SDS011;29800;55.942;37.314;2023-09-19T06:31:33;17.75;;;10.20;;
44137;SDS011;29800;55.942;37.314;2023-09-19T06:34:00;16.27;;;11.52;;
44137;SDS011;29800;55.942;37.314;2023-09-19T06:36:26;15.80;;;11.52;;
44137;SDS011;29800;55.942;37.314;2023-09-19T06:38:52;19.40;;;12.32;;
44137;SDS011;29800;55.942;37.314;2023-09-19T06:41:19;16.70;;;11.93;;
44137;SDS011;29800;55.942;37.314;2023-09-19T06:43:50;17.63;;;12.05;;
44137;SDS011;29800;55.942;37.314;2023-09-19T06:46:19;17.60;;;11.98;;
44137;SDS011;29800;55.942;37.314;2023-09-19T06:48:45;15.93;;;11.70;;
44137;SDS011;29800;55.942;37.314;2023-09-19T06:51:13;16.48;;;11.80;;
44137;SDS011;29800;55.942;37.314;2023-09-19T06:53:41;15.48;;;11.07;;
44137;SDS011;29800;55.942;37.314;2023-09-19T06:56:08;19.00;;;12.70;;
44137;SDS011;29800;55.942;37.314;2023-09-19T06:58:34;17.63;;;12.07;;
44137;SDS011;29800;55.942;37.314;2023-09-19T07:01:02;20.77;;;11.73;;
44137;SDS011;29800;55.942;37.314;2023-09-19T07:03:29;21.48;;;11.82;;
44137;SDS011;29800;55.942;37.314;2023-09-19T07:05:55;15.32;;;12.05;;
44137;SDS011;29800;55.942;37.314;2023-09-19T07:08:24;19.02;;;11.93;;
44137;SDS011;29800;55.942;37.314;2023-09-19T07:10:50;16.85;;;11.45;;
44137;SDS011;29800;55.942;37.314;2023-09-19T07:13:18;24.25;;;12.75;;
44137;SDS011;29800;55.942;37.314;2023-09-19T07:15:45;22.50;;;12.18;;
44137;SDS011;29800;55.942;37.314;2023-09-19T07:18:16;23.27;;;12.48;;
44137;SDS011;29800;55.942;37.314;2023-09-19T07:20:46;17.38;;;11.35;;
44137;SDS011;29800;55.942;37.314;2023-09-19T07:23:16;16.00;;;11.80;;
44137;SDS011;29800;55.942;37.314;2023-09-19T07:25:48;16.58;;;11.90;;
44137;SDS011;29800;55.942;37.314;2023-09-19T07:28:15;21.73;;;12.00;;
44137;SDS011;29800;55.942;37.314;2023-09-19T07:30:42;19.88;;;12.48;;
44137;SDS011;29800;55.942;37.314;2023-09-19T07:33:08;19.52;;;12.23;;
44137;SDS011;29800;55.942;37.314;2023-09-19T07:35:38;21.17;;;11.90;;
44137;SDS011;29800;55.942;37.314;2023-09-19T07:38:09;18.48;;;12.68;;
44137;SDS011;29800;55.942;37.314;2023-09-19T07:40:37;19.65;;;12.77;;
44137;SDS011;29800;55.942;37.314;2023-09-19T07:43:03;18.52;;;12.55;;
44137;SDS011;29800;55.942;37.314;2023-09-19T07:45:33;23.75;;;13.10;;
44137;SDS011;29800;55.942;37.314;2023-09-19T07:48:00;21.90;;;12.50;;
44137;SDS011;29800;55.942;37.314;2023-09-19T07:50:30;21.67;;;13.05;;
44137;SDS011;29800;55.942;37.314;2023-09-19T07:52:56;21.25;;;13.23;;
44137;SDS011;29800;55.942;37.314;2023-09-19T07:55:23;20.95;;;12.90;;
44137;SDS011;29800;55.942;37.314;2023-09-19T07:57:54;25.52;;;13.27;;
44137;SDS011;29800;55.942;37.314;2023-09-19T08:00:20;21.30;;;13.00;;
44137;SDS011;29800;55.942;37.314;2023-09-19T08:02:48;21.23;;;13.60;;
44137;SDS011;29800;55.942;37.314;2023-09-19T08:05:17;22.98;;;13.02;;
44137;SDS011;29800;55.942;37.314;2023-09-19T08:07:46;19.70;;;14.20;;
44137;SDS011;29800;55.942;37.314;2023-09-19T08:10:15;21.08;;;13.70;;
44137;SDS011;29800;55.942;37.314;2023-09-19T08:12:46;24.50;;;14.07;;
44137;SDS011;29800;55.942;37.314;2023-09-19T08:15:16;21.73;;;13.52;;
44137;SDS011;29800;55.942;37.314;2023-09-19T08:17:45;21.75;;;13.55;;
44137;SDS011;29800;55.942;37.314;2023-09-19T08:20:14;25.33;;;14.18;;
44137;SDS011;29800;55.942;37.314;2023-09-19T08:22:48;22.40;;;14.02;;
44137;SDS011;29800;55.942;37.314;2023-09-19T08:25:21;22.83;;;14.48;;
44137;SDS011;29800;55.942;37.314;2023-09-19T08:27:49;24.60;;;14.65;;
44137;SDS011;29800;55.942;37.314;2023-09-19T08:30:20;23.65;;;13.95;;
44137;SDS011;29800;55.942;37.314;2023-09-19T08:32:58;20.25;;;14.13;;
44137;SDS011;29800;55.942;37.314;2023-09-19T08:35:29;20.10;;;13.35;;
44137;SDS011;29800;55.942;37.314;2023-09-19T08:37:59;21.00;;;13.68;;
44137;SDS011;29800;55.942;37.314;2023-09-19T08:40:30;20.73;;;13.80;;
44137;SDS011;29800;55.942;37.314;2023-09-19T08:42:59;25.50;;;14.98;;
44137;SDS011;29800;55.942;37.314;2023-09-19T08:45:26;23.38;;;14.98;;
44137;SDS011;29800;55.942;37.314;2023-09-19T08:48:00;25.83;;;14.13;;
44137;SDS011;29800;55.942;37.314;2023-09-19T08:50:43;23.48;;;13.70;;
44137;SDS011;29800;55.942;37.314;2023-09-19T08:55:55;21.65;;;13.13;;
44137;SDS011;29800;55.942;37.314;2023-09-19T08:58:25;25.98;;;14.60;;
44137;SDS011;29800;55.942;37.314;2023-09-19T09:01:00;24.50;;;15.77;;
44137;SDS011;29800;55.942;37.314;2023-09-19T09:03:42;25.93;;;13.73;;
44137;SDS011;29800;55.942;37.314;2023-09-19T09:06:14;24.67;;;14.10;;
44137;SDS011;29800;55.942;37.314;2023-09-19T09:08:43;22.48;;;13.43;;
44137;SDS011;29800;55.942;37.314;2023-09-19T09:11:10;22.05;;;14.38;;
44137;SDS011;29800;55.942;37.314;2023-09-19T09:13:39;20.23;;;13.93;;
44137;SDS011;29800;55.942;37.314;2023-09-19T09:16:10;18.33;;;13.20;;
44137;SDS011;29800;55.942;37.314;2023-09-19T09:18:38;22.55;;;14.10;;
44137;SDS011;29800;55.942;37.314;2023-09-19T09:21:06;19.40;;;13.52;;
44137;SDS011;29800;55.942;37.314;2023-09-19T09:23:33;22.10;;;13.57;;
44137;SDS011;29800;55.942;37.314;2023-09-19T09:26:04;24.98;;;13.55;;
44137;SDS011;29800;55.942;37.314;2023-09-19T09:28:44;22.17;;;14.05;;
44137;SDS011;29800;55.942;37.314;2023-09-19T09:31:22;30.40;;;17.80;;
44137;SDS011;29800;55.942;37.314;2023-09-19T09:33:54;28.30;;;14.15;;
44137;SDS011;29800;55.942;37.314;2023-09-19T09:36:34;21.92;;;13.63;;
44137;SDS011;29800;55.942;37.314;2023-09-19T09:39:05;20.27;;;13.82;;
44137;SDS011;29800;55.942;37.314;2023-09-19T09:41:49;26.60;;;14.35;;
44137;SDS011;29800;55.942;37.314;2023-09-19T09:44:17;21.35;;;13.90;;
44137;SDS011;29800;55.942;37.314;2023-09-19T09:46:46;20.83;;;13.50;;
44137;SDS011;29800;55.942;37.314;2023-09-19T09:49:24;18.88;;;13.43;;
44137;SDS011;29800;55.942;37.314;2023-09-19T09:52:06;22.83;;;13.07;;
44137;SDS011;29800;55.942;37.314;2023-09-19T09:55:02;19.77;;;13.52;;
44137;SDS011;29800;55.942;37.314;2023-09-19T09:57:34;20.45;;;12.38;;
44137;SDS011;29800;55.942;37.314;2023-09-19T10:00:05;17.35;;;11.93;;
44137;SDS011;29800;55.942;37.314;2023-09-19T10:02:47;19.80;;;13.77;;
44137;SDS011;29800;55.942;37.314;2023-09-19T10:05:17;23.95;;;13.50;;
44137;SDS011;29800;55.942;37.314;2023-09-19T10:07:54;21.30;;;13.82;;
44137;SDS011;29800;55.942;37.314;2023-09-19T10:10:44;18.27;;;11.55;;
44137;SDS011;29800;55.942;37.314;2023-09-19T10:13:20;24.17;;;14.25;;
44137;SDS011;29800;55.942;37.314;2023-09-19T10:15:51;18.20;;;9.80;;
44137;SDS011;29800;55.942;37.314;2023-09-19T10:18:33;23.63;;;13.23;;
44137;SDS011;29800;55.942;37.314;2023-09-19T10:21:09;24.30;;;13.18;;
44137;SDS011;29800;55.942;37.314;2023-09-19T10:23:40;21.63;;;13.40;;
44137;SDS011;29800;55.942;37.314;2023-09-19T10:26:17;26.90;;;13.25;;
44137;SDS011;29800;55.942;37.314;2023-09-19T10:31:28;19.15;;;12.57;;
44137;SDS011;29800;55.942;37.314;2023-09-19T10:34:04;19.02;;;13.65;;
44137;SDS011;29800;55.942;37.314;2023-09-19T10:36:33;19.98;;;11.10;;
44137;SDS011;29800;55.942;37.314;2023-09-19T10:39:10;21.65;;;12.25;;
44137;SDS011;29800;55.942;37.314;2023-09-19T10:41:42;19.50;;;12.93;;
44137;SDS011;29800;55.942;37.314;2023-09-19T10:44:12;20.55;;;13.25;;
44137;SDS011;29800;55.942;37.314;2023-09-19T10:46:41;23.08;;;13.40;;
44137;SDS011;29800;55.942;37.314;2023-09-19T10:49:14;22.27;;;13.18;;
44137;SDS011;29800;55.942;37.314;2023-09-19T10:51:52;18.10;;;12.82;;
44137;SDS011;29800;55.942;37.314;2023-09-19T10:54:35;18.52;;;13.07;;
44137;SDS011;29800;55.942;37.314;2023-09-19T10:57:12;19.48;;;12.55;;
44137;SDS011;29800;55.942;37.314;2023-09-19T11:00:14;21.92;;;12.45;;
44137;SDS011;29800;55.942;37.314;2023-09-19T11:05:43;21.85;;;12.85;;
44137;SDS011;29800;55.942;37.314;2023-09-19T11:08:27;21.42;;;11.63;;
44137;SDS011;29800;55.942;37.314;2023-09-19T11:11:04;18.80;;;10.05;;
44137;SDS011;29800;55.942;37.314;2023-09-19T11:25:44;21.80;;;12.38;;
44137;SDS011;29800;55.942;37.314;2023-09-19T11:31:41;20.80;;;13.27;;
44137;SDS011;29800;55.942;37.314;2023-09-19T11:40:11;21.02;;;12.68;;
44137;SDS011;29800;55.942;37.314;2023-09-19T11:42:44;21.52;;;12.93;;
44137;SDS011;29800;55.942;37.314;2023-09-19T11:48:18;20.80;;;12.20;;
44137;SDS011;29800;55.942;37.314;2023-09-19T11:50:51;23.10;;;13.10;;
44137;SDS011;29800;55.942;37.314;2023-09-19T11:53:20;19.23;;;10.90;;
44137;SDS011;29800;55.942;37.314;2023-09-19T11:55:51;10.98;;;8.13;;
44137;SDS011;29800;55.942;37.314;2023-09-19T11:58:19;23.30;;;13.73;;
44137;SDS011;29800;55.942;37.314;2023-09-19T12:00:53;19.20;;;12.85;;
44137;SDS011;29800;55.942;37.314;2023-09-19T12:03:33;17.02;;;12.32;;
44137;SDS011;29800;55.942;37.314;2023-09-19T12:06:12;20.23;;;12.73;;
44137;SDS011;29800;55.942;37.314;2023-09-19T12:08:42;22.08;;;12.25;;
44137;SDS011;29800;55.942;37.314;2023-09-19T12:11:14;22.58;;;12.68;;
44137;SDS011;29800;55.942;37.314;2023-09-19T12:13:56;18.23;;;11.32;;
44137;SDS011;29800;55.942;37.314;2023-09-19T12:16:30;20.00;;;11.80;;
44137;SDS011;29800;55.942;37.314;2023-09-19T12:19:22;21.50;;;12.13;;
44137;SDS011;29800;55.942;37.314;2023-09-19T12:22:02;23.00;;;12.45;;
44137;SDS011;29800;55.942;37.314;2023-09-19T12:24:38;20.65;;;12.45;;
44137;SDS011;29800;55.942;37.314;2023-09-19T12:27:14;21.92;;;11.30;;
44137;SDS011;29800;55.942;37.314;2023-09-19T12:29:54;18.77;;;12.25;;
44137;SDS011;29800;55.942;37.314;2023-09-19T12:32:37;18.90;;;10.73;;
44137;SDS011;29800;55.942;37.314;2023-09-19T12:35:08;22.23;;;11.05;;
44137;SDS011;29800;55.942;37.314;2023-09-19T12:37:37;22.45;;;10.75;;
44137;SDS011;29800;55.942;37.314;2023-09-19T12:40:14;24.63;;;10.60;;
44137;SDS011;29800;55.942;37.314;2023-09-19T12:42:45;15.43;;;9.48;;
44137;SDS011;29800;55.942;37.314;2023-09-19T12:45:18;17.88;;;10.20;;
44137;SDS011;29800;55.942;37.314;2023-09-19T12:51:10;17.00;;;8.77;;
44137;SDS011;29800;55.942;37.314;2023-09-19T12:53:44;23.20;;;9.75;;
44137;SDS011;29800;55.942;37.314;2023-09-19T12:56:23;17.42;;;9.32;;
44137;SDS011;29800;55.942;37.314;2023-09-19T12:58:56;16.40;;;10.20;;
44137;SDS011;29800;55.942;37.314;2023-09-19T13:01:28;16.15;;;9.32;;
44137;SDS011;29800;55.942;37.314;2023-09-19T13:07:09;14.70;;;9.50;;
44137;SDS011;29800;55.942;37.314;2023-09-19T13:10:13;17.67;;;9.43;;
44137;SDS011;29800;55.942;37.314;2023-09-19T13:12:44;17.67;;;9.55;;
44137;SDS011;29800;55.942;37.314;2023-09-19T13:15:13;20.35;;;9.95;;
44137;SDS011;29800;55.942;37.314;2023-09-19T13:17:54;18.52;;;10.18;;
44137;SDS011;29800;55.942;37.314;2023-09-19T13:20:26;16.30;;;8.82;;
44137;SDS011;29800;55.942;37.314;2023-09-19T13:22:54;15.65;;;9.65;;
44137;SDS011;29800;55.942;37.314;2023-09-19T13:25:26;15.18;;;8.93;;
44137;SDS011;29800;55.942;37.314;2023-09-19T13:27:56;13.30;;;8.38;;
44137;SDS011;29800;55.942;37.314;2023-09-19T13:30:30;15.68;;;8.70;;
44137;SDS011;29800;55.942;37.314;2023-09-19T13:33:10;18.15;;;10.23;;
44137;SDS011;29800;55.942;37.314;2023-09-19T13:35:40;20.00;;;10.30;;
44137;SDS011;29800;55.942;37.314;2023-09-19T13:38:07;16.55;;;9.98;;
44137;SDS011;29800;55.942;37.314;2023-09-19T13:40:44;18.92;;;9.80;;
44137;SDS011;29800;55.942;37.314;2023-09-19T13:43:11;21.95;;;9.85;;
44137;SDS011;29800;55.942;37.314;2023-09-19T13:45:42;16.33;;;11.07;;
44137;SDS011;29800;55.942;37.314;2023-09-19T13:48:09;21.80;;;9.82;;
44137;SDS011;29800;55.942;37.314;2023-09-19T13:50:39;17.73;;;9.43;;
44137;SDS011;29800;55.942;37.314;2023-09-19T13:53:09;16.80;;;9.30;;
44137;SDS011;29800;55.942;37.314;2023-09-19T13:55:35;16.85;;;9.25;;
44137;SDS011;29800;55.942;37.314;2023-09-19T13:58:05;18.63;;;9.32;;
44137;SDS011;29800;55.942;37.314;2023-09-19T14:00:35;16.42;;;8.02;;
44137;SDS011;29800;55.942;37.314;2023-09-19T14:03:04;13.60;;;8.68;;
44137;SDS011;29800;55.942;37.314;2023-09-19T14:05:34;15.52;;;9.00;;
44137;SDS011;29800;55.942;37.314;2023-09-19T14:08:01;15.88;;;8.20;;
44137;SDS011;29800;55.942;37.314;2023-09-19T14:10:29;14.85;;;8.35;;
44137;SDS011;29800;55.942;37.314;2023-09-19T14:13:06;15.00;;;8.00;;
44137;SDS011;29800;55.942;37.314;2023-09-19T14:15:36;15.65;;;8.20;;
44137;SDS011;29800;55.942;37.314;2023-09-19T14:18:04;15.63;;;8.45;;
44137;SDS011;29800;55.942;37.314;2023-09-19T14:20:33;16.88;;;8.40;;
44137;SDS011;29800;55.942;37.314;2023-09-19T14:23:06;16.10;;;8.20;;
44137;SDS011;29800;55.942;37.314;2023-09-19T14:25:35;18.10;;;7.90;;
44137;SDS011;29800;55.942;37.314;2023-09-19T14:28:04;18.30;;;7.45;;
44137;SDS011;29800;55.942;37.314;2023-09-19T14:30:39;18.92;;;8.35;;
44137;SDS011;29800;55.942;37.314;2023-09-19T14:33:06;17.10;;;7.75;;
44137;SDS011;29800;55.942;37.314;2023-09-19T14:35:43;19.35;;;7.80;;
44137;SDS011;29800;55.942;37.314;2023-09-19T14:38:13;11.43;;;7.20;;
44137;SDS011;29800;55.942;37.314;2023-09-19T14:40:40;19.13;;;7.13;;
44137;SDS011;29800;55.942;37.314;2023-09-19T14:43:11;10.52;;;5.60;;
44137;SDS011;29800;55.942;37.314;2023-09-19T14:45:40;18.50;;;5.93;;
44137;SDS011;29800;55.942;37.314;2023-09-19T14:48:06;12.90;;;5.45;;
44137;SDS011;29800;55.942;37.314;2023-09-19T14:50:35;9.45;;;5.53;;
44137;SDS011;29800;55.942;37.314;2023-09-19T14:53:02;11.30;;;5.63;;
44137;SDS011;29800;55.942;37.314;2023-09-19T14:55:36;13.75;;;5.63;;
44137;SDS011;29800;55.942;37.314;2023-09-19T14:58:07;19.35;;;6.10;;
44137;SDS011;29800;55.942;37.314;2023-09-19T15:00:37;11.45;;;6.28;;
44137;SDS011;29800;55.942;37.314;2023-09-19T15:03:04;15.57;;;7.25;;
44137;SDS011;29800;55.942;37.314;2023-09-19T15:05:30;11.32;;;9.38;;
44137;SDS011;29800;55.942;37.314;2023-09-19T15:07:57;11.25;;;7.63;;
44137;SDS011;29800;55.942;37.314;2023-09-19T15:10:28;11.50;;;6.43;;
44137;SDS011;29800;55.942;37.314;2023-09-19T15:12:59;8.65;;;6.25;;
44137;SDS011;29800;55.942;37.314;2023-09-19T15:15:26;8.60;;;5.88;;
44137;SDS011;29800;55.942;37.314;2023-09-19T15:17:52;15.07;;;6.05;;
44137;SDS011;29800;55.942;37.314;2023-09-19T15:20:19;8.85;;;5.82;;
44137;SDS011;29800;55.942;37.314;2023-09-19T15:22:46;10.27;;;5.65;;